createdAt,value
2018-07-24T00:00:32.113Z,3.43
2018-07-24T00:04:35.814Z,3.90
2018-07-24T00:08:39.511Z,3.37
2018-07-24T00:12:49.682Z,3.10
2018-07-24T00:16:53.404Z,3.33
2018-07-24T00:20:57.099Z,3.43
2018-07-24T00:25:00.876Z,3.47
2018-07-24T00:29:04.659Z,3.97
2018-07-24T00:33:08.340Z,3.47
2018-07-24T00:37:12.033Z,3.70
2018-07-24T00:41:15.800Z,3.80
2018-07-24T00:45:19.516Z,3.80
2018-07-24T00:49:23.182Z,3.90
2018-07-24T00:53:26.959Z,3.77
2018-07-24T00:57:30.689Z,4.00
2018-07-24T01:01:34.447Z,3.90
2018-07-24T01:05:38.146Z,4.47
2018-07-24T01:09:41.868Z,4.20
2018-07-24T01:13:45.553Z,4.50
2018-07-24T01:17:49.212Z,4.60
2018-07-24T01:21:52.993Z,4.37
2018-07-24T01:25:56.806Z,4.63
2018-07-24T01:30:00.521Z,3.90
2018-07-24T01:34:04.268Z,4.30
2018-07-24T01:38:08.139Z,3.93
2018-07-24T01:42:11.848Z,5.17
2018-07-24T01:46:15.573Z,4.70
2018-07-24T01:50:19.216Z,4.77
2018-07-24T01:54:22.906Z,4.53
2018-07-24T01:58:26.579Z,4.60
2018-07-24T02:02:30.327Z,4.50
2018-07-24T02:06:33.993Z,4.57
2018-07-24T02:10:37.619Z,4.57
2018-07-24T02:14:41.319Z,3.53
2018-07-24T02:18:45.080Z,4.63
2018-07-24T02:22:48.894Z,4.37
2018-07-24T02:26:52.712Z,4.43
2018-07-24T02:30:56.353Z,4.20
2018-07-24T02:35:00.053Z,4.50
2018-07-24T02:39:04.167Z,5.00
2018-07-24T02:43:07.931Z,5.33
2018-07-24T02:47:11.644Z,5.00
2018-07-24T02:51:15.404Z,4.67
2018-07-24T02:55:19.076Z,4.63
2018-07-24T02:59:22.816Z,4.73
2018-07-24T03:03:26.544Z,5.23
2018-07-24T03:07:30.237Z,5.40
2018-07-24T03:11:33.890Z,4.67
2018-07-24T03:15:37.604Z,4.67
2018-07-24T03:19:41.365Z,4.37
2018-07-24T03:23:45.049Z,4.60
2018-07-24T03:27:48.740Z,4.77
2018-07-24T03:31:52.405Z,5.30
2018-07-24T03:35:56.088Z,5.07
2018-07-24T03:39:59.772Z,4.90
2018-07-24T03:44:03.505Z,6.00
2018-07-24T03:48:07.204Z,4.97
2018-07-24T03:52:10.878Z,5.30
2018-07-24T03:56:14.556Z,4.83
2018-07-24T04:00:18.373Z,4.80
2018-07-24T04:04:22.048Z,5.00
2018-07-24T04:08:25.969Z,5.20
2018-07-24T04:12:29.750Z,5.07
2018-07-24T04:16:33.451Z,6.03
2018-07-24T04:20:37.150Z,5.37
2018-07-24T04:24:40.841Z,5.80
2018-07-24T04:28:45.556Z,5.47
2018-07-24T04:32:49.299Z,5.60
2018-07-24T04:36:53.078Z,5.70
2018-07-24T04:40:56.772Z,5.70
2018-07-24T04:45:00.133Z,5.10
2018-07-24T04:49:03.831Z,5.63
2018-07-24T04:53:07.931Z,6.30
2018-07-24T04:57:11.636Z,7.20
2018-07-24T05:01:15.411Z,6.53
2018-07-24T05:05:19.120Z,6.43
2018-07-24T05:09:22.864Z,7.60
2018-07-24T05:13:26.586Z,7.10
2018-07-24T05:17:30.308Z,7.83
2018-07-24T05:21:34.183Z,6.53
2018-07-24T05:25:37.951Z,7.23
2018-07-24T05:29:41.688Z,7.60
2018-07-24T05:33:45.453Z,7.77
2018-07-24T05:37:49.190Z,6.83
2018-07-24T05:41:52.928Z,6.57
2018-07-24T05:45:56.669Z,6.50
2018-07-24T05:50:00.401Z,6.30
2018-07-24T05:54:04.249Z,7.57
2018-07-24T05:58:07.993Z,5.70
2018-07-24T06:02:12.082Z,7.70
2018-07-24T06:06:15.820Z,5.57
2018-07-24T06:10:19.664Z,6.40
2018-07-24T06:14:23.414Z,5.53
2018-07-24T06:18:27.110Z,5.00
2018-07-24T06:22:30.900Z,4.17
2018-07-24T06:26:34.589Z,4.10
2018-07-24T06:30:38.364Z,4.20
2018-07-24T06:34:42.288Z,4.00
2018-07-24T06:38:45.974Z,4.00
2018-07-24T06:42:49.715Z,3.47
2018-07-24T06:46:53.500Z,4.13
2018-07-24T06:50:57.267Z,3.90
2018-07-24T06:55:01.014Z,3.77
2018-07-24T06:59:04.869Z,3.43
2018-07-24T07:03:08.601Z,3.73
2018-07-24T07:07:12.519Z,3.23
2018-07-24T07:11:16.260Z,3.27
2018-07-24T07:15:19.958Z,3.77
2018-07-24T07:19:23.636Z,3.03
2018-07-24T07:23:27.367Z,3.40
2018-07-24T07:27:31.090Z,3.53
2018-07-24T07:31:34.804Z,2.97
2018-07-24T07:35:38.561Z,3.40
2018-07-24T07:39:42.453Z,3.20
2018-07-24T07:43:46.160Z,3.00
2018-07-24T07:47:49.881Z,3.60
2018-07-24T07:51:53.613Z,3.27
2018-07-24T07:55:57.814Z,3.30
2018-07-24T08:00:01.559Z,2.93
2018-07-24T08:04:05.360Z,2.77
2018-07-24T08:08:09.105Z,3.03
2018-07-24T08:12:12.850Z,3.20
2018-07-24T08:16:16.575Z,2.77
2018-07-24T08:20:20.309Z,2.87
2018-07-24T08:24:24.000Z,3.13
2018-07-24T08:28:27.721Z,3.00
2018-07-24T08:32:31.464Z,3.27
2018-07-24T08:36:35.253Z,3.27
2018-07-24T08:40:39.032Z,2.80
2018-07-24T08:44:42.723Z,2.97
2018-07-24T08:48:46.447Z,2.67
2018-07-24T08:52:50.300Z,2.70
2018-07-24T08:56:53.960Z,2.30
2018-07-24T09:00:57.713Z,3.30
2018-07-24T09:05:01.462Z,2.80
2018-07-24T09:09:07.929Z,3.37
2018-07-24T09:13:11.648Z,3.10
2018-07-24T09:17:15.483Z,2.97
2018-07-24T09:21:19.228Z,2.50
2018-07-24T09:25:23.134Z,2.93
2018-07-24T09:29:26.903Z,2.40
2018-07-24T09:33:30.735Z,2.60
2018-07-24T09:37:34.456Z,2.67
2018-07-24T09:41:38.489Z,2.80
2018-07-24T09:45:42.357Z,2.60
2018-07-24T09:49:46.048Z,2.40
2018-07-24T09:53:49.770Z,2.80
2018-07-24T09:57:53.676Z,2.40
2018-07-24T10:01:57.428Z,2.80
2018-07-24T10:06:01.099Z,2.60
2018-07-24T10:10:04.904Z,2.70
2018-07-24T10:14:08.606Z,2.67
2018-07-24T10:18:12.361Z,2.90
2018-07-24T10:22:16.250Z,2.67
2018-07-24T10:26:19.973Z,2.73
2018-07-24T10:30:23.725Z,2.83
2018-07-24T10:34:27.464Z,2.93
2018-07-24T10:38:31.189Z,3.07
2018-07-24T10:42:35.001Z,2.87
2018-07-24T10:46:39.384Z,2.67
2018-07-24T10:50:43.208Z,2.83
2018-07-24T10:54:46.950Z,2.70
2018-07-24T10:58:50.669Z,2.77
2018-07-24T11:02:54.448Z,3.37
2018-07-24T11:06:58.235Z,2.97
2018-07-24T11:11:01.955Z,3.40
2018-07-24T11:15:06.542Z,3.00
2018-07-24T11:19:10.262Z,2.80
2018-07-24T11:23:14.179Z,2.63
2018-07-24T11:27:17.841Z,2.70
2018-07-24T11:31:21.577Z,3.00
2018-07-24T11:35:25.348Z,2.70
2018-07-24T11:39:29.132Z,2.67
2018-07-24T11:43:32.873Z,2.67
2018-07-24T11:47:36.571Z,2.40
2018-07-24T11:51:40.354Z,2.70
2018-07-24T11:55:44.164Z,2.63
2018-07-24T11:59:47.956Z,3.07
2018-07-24T12:03:51.789Z,2.93
2018-07-24T12:07:55.582Z,3.17
2018-07-24T12:11:59.205Z,2.73
2018-07-24T12:16:02.940Z,3.13
2018-07-24T12:20:06.744Z,2.83
2018-07-24T12:24:10.449Z,2.70
2018-07-24T12:28:14.270Z,3.03
2018-07-24T12:32:17.953Z,2.50
2018-07-24T12:36:21.643Z,2.47
2018-07-24T12:40:25.435Z,2.60
2018-07-24T12:44:29.197Z,2.73
2018-07-24T12:48:32.879Z,2.70
2018-07-24T12:52:36.574Z,2.30
2018-07-24T12:56:40.316Z,2.93
2018-07-24T13:00:44.400Z,3.03
2018-07-24T13:04:48.102Z,2.90
2018-07-24T13:08:51.813Z,3.00
2018-07-24T13:12:55.546Z,2.77
2018-07-24T13:16:59.379Z,2.23
2018-07-24T13:21:03.126Z,2.10
2018-07-24T13:25:06.902Z,2.17
2018-07-24T13:29:10.728Z,2.50
2018-07-24T13:33:14.417Z,2.23
2018-07-24T13:37:18.133Z,2.57
2018-07-24T13:41:21.894Z,2.50
2018-07-24T13:45:25.578Z,2.30
2018-07-24T13:49:29.277Z,2.63
2018-07-24T13:53:32.932Z,2.80
2018-07-24T13:57:36.740Z,2.73
2018-07-24T14:01:40.472Z,2.70
2018-07-24T14:05:44.254Z,2.60
2018-07-24T14:09:47.972Z,2.70
2018-07-24T14:13:51.641Z,3.00
2018-07-24T14:17:55.379Z,2.80
2018-07-24T14:21:59.127Z,2.50
2018-07-24T14:26:02.830Z,2.20
2018-07-24T14:30:06.973Z,2.70
2018-07-24T14:34:10.286Z,2.50
2018-07-24T14:38:14.100Z,2.70
2018-07-24T14:42:18.034Z,3.07
2018-07-24T14:46:28.190Z,2.60
2018-07-24T14:50:31.891Z,2.80
2018-07-24T14:54:35.541Z,2.60
2018-07-24T14:58:39.232Z,2.40
2018-07-24T15:02:43.009Z,2.57
2018-07-24T15:06:46.708Z,2.37
2018-07-24T15:10:50.431Z,2.50
2018-07-24T15:14:54.113Z,2.50
2018-07-24T15:18:57.819Z,2.13
2018-07-24T15:23:01.534Z,2.60
2018-07-24T15:27:05.252Z,2.47
2018-07-24T15:31:08.982Z,2.43
2018-07-24T15:35:12.718Z,2.53
2018-07-24T15:39:16.526Z,2.50
2018-07-24T15:43:20.232Z,1.67
2018-07-24T15:47:23.923Z,2.40
2018-07-24T15:51:27.618Z,2.10
2018-07-24T15:55:31.321Z,2.53
2018-07-24T15:59:35.028Z,3.20
2018-07-24T16:03:38.785Z,2.17
2018-07-24T16:07:42.511Z,2.47
2018-07-24T16:11:46.271Z,1.90
2018-07-24T16:15:50.085Z,2.07
2018-07-24T16:19:53.806Z,2.20
2018-07-24T16:23:57.476Z,2.23
2018-07-24T16:28:01.197Z,2.03
2018-07-24T16:32:04.949Z,2.20
2018-07-24T16:36:08.649Z,2.13
2018-07-24T16:40:12.313Z,2.40
2018-07-24T16:44:16.046Z,2.07
2018-07-24T16:48:19.781Z,2.20
2018-07-24T16:52:23.523Z,2.33
2018-07-24T16:56:27.218Z,2.00
2018-07-24T17:00:30.937Z,2.27
2018-07-24T17:04:34.619Z,2.03
2018-07-24T17:08:38.355Z,1.80
2018-07-24T17:16:29.733Z,2.07
2018-07-24T17:20:33.445Z,2.00
2018-07-24T17:24:37.228Z,2.23
2018-07-24T17:28:40.996Z,2.07
2018-07-24T17:32:45.255Z,2.53
2018-07-24T17:36:48.981Z,2.20
2018-07-24T17:40:52.746Z,1.80
2018-07-24T17:44:56.489Z,2.13
2018-07-24T17:49:00.188Z,1.90
2018-07-24T17:53:03.971Z,2.33
2018-07-24T17:57:07.722Z,2.47
2018-07-24T18:01:11.511Z,2.23
2018-07-24T18:05:15.203Z,2.10
2018-07-24T18:09:18.929Z,1.80
2018-07-24T18:13:22.617Z,2.20
2018-07-24T18:17:26.404Z,1.77
2018-07-24T18:21:30.105Z,1.90
2018-07-24T18:25:33.824Z,1.80
2018-07-24T18:29:37.526Z,1.80
2018-07-24T18:33:41.216Z,1.93
2018-07-24T18:37:44.911Z,1.80
2018-07-24T18:41:48.576Z,2.10
2018-07-24T18:45:52.331Z,1.97
2018-07-24T18:49:56.032Z,2.97
2018-07-24T18:53:59.729Z,1.73
2018-07-24T18:58:03.458Z,2.13
2018-07-24T19:02:07.197Z,1.83
2018-07-24T19:06:10.919Z,2.10
2018-07-24T19:10:14.627Z,2.00
2018-07-24T19:14:18.325Z,1.57
2018-07-24T19:18:22.060Z,1.67
2018-07-24T19:22:25.776Z,1.60
2018-07-24T19:26:29.494Z,1.67
2018-07-24T19:30:33.211Z,1.60
2018-07-24T19:34:36.932Z,2.00
2018-07-24T19:38:40.656Z,2.17
2018-07-24T19:42:44.358Z,2.10
2018-07-24T19:46:48.940Z,2.27
2018-07-24T19:50:52.953Z,2.07
2018-07-24T19:54:56.657Z,2.40
2018-07-24T19:59:00.942Z,1.80
2018-07-24T20:03:04.684Z,2.10
2018-07-24T20:07:08.789Z,1.57
2018-07-24T20:11:12.578Z,2.00
2018-07-24T20:15:19.257Z,2.00
2018-07-24T20:19:23.104Z,2.50
2018-07-24T20:23:26.912Z,1.77
2018-07-24T20:27:30.612Z,2.37
2018-07-24T20:31:34.381Z,2.27
2018-07-24T20:35:38.183Z,2.13
2018-07-24T20:39:41.880Z,2.00
2018-07-24T20:43:45.650Z,2.60
2018-07-24T20:47:49.365Z,2.23
2018-07-24T20:51:53.084Z,1.90
2018-07-24T20:55:56.800Z,2.07
2018-07-24T21:00:04.809Z,2.40
2018-07-24T21:04:08.537Z,2.60
2018-07-24T21:08:12.254Z,2.47
2018-07-24T21:12:16.092Z,2.67
2018-07-24T21:16:20.226Z,2.40
2018-07-24T21:20:23.981Z,2.57
2018-07-24T21:24:27.697Z,2.40
2018-07-24T21:28:31.459Z,2.40
2018-07-24T21:32:35.244Z,2.47
2018-07-24T21:36:39.011Z,2.30
2018-07-24T21:40:42.775Z,1.97
2018-07-24T21:44:46.499Z,2.47
2018-07-24T21:48:50.196Z,2.67
2018-07-24T21:52:53.969Z,2.60
2018-07-24T21:56:57.689Z,2.80
2018-07-24T22:01:06.697Z,2.80
2018-07-24T22:05:10.466Z,2.23
2018-07-24T22:09:14.177Z,2.57
2018-07-24T22:13:17.887Z,2.83
2018-07-24T22:17:21.605Z,2.67
2018-07-24T22:21:25.320Z,2.53
2018-07-24T22:25:29.145Z,2.73
2018-07-24T22:29:32.884Z,2.60
2018-07-24T22:33:36.679Z,2.43
2018-07-24T22:37:40.461Z,2.60
2018-07-24T22:41:44.182Z,2.90
2018-07-24T22:45:47.890Z,2.77
2018-07-24T22:49:51.596Z,2.73
2018-07-24T22:53:55.297Z,2.80
2018-07-24T22:57:59.067Z,2.27
2018-07-24T23:02:02.814Z,2.50
2018-07-24T23:06:06.537Z,2.60
2018-07-24T23:10:10.199Z,2.30
2018-07-24T23:14:13.929Z,2.27
2018-07-24T23:18:17.694Z,2.53
2018-07-24T23:22:21.412Z,2.63
2018-07-24T23:26:25.152Z,2.33
2018-07-24T23:30:28.967Z,2.93
2018-07-24T23:34:32.670Z,2.60
2018-07-24T23:38:36.420Z,2.43
2018-07-24T23:42:40.167Z,2.87
2018-07-24T23:46:43.926Z,2.23
2018-07-24T23:50:47.580Z,2.30
2018-07-24T23:54:51.296Z,2.47
2018-07-24T23:58:55.104Z,2.63
